createdAt,value
2023-03-08T00:00:40.176Z,4.70
2023-03-08T00:03:07.067Z,4.70
2023-03-08T00:05:33.729Z,4.70
2023-03-08T00:08:00.343Z,4.70
2023-03-08T00:10:26.975Z,4.70
2023-03-08T00:12:53.617Z,4.70
2023-03-08T00:15:20.283Z,4.70
2023-03-08T00:17:46.943Z,4.60
2023-03-08T00:20:13.798Z,4.70
2023-03-08T00:22:41.230Z,4.60
2023-03-08T00:25:11.505Z,4.60
2023-03-08T00:27:38.291Z,4.60
2023-03-08T00:30:06.147Z,4.60
2023-03-08T00:32:33.032Z,4.60
2023-03-08T00:34:59.698Z,4.50
2023-03-08T00:37:26.312Z,4.50
2023-03-08T00:39:53.625Z,4.50
2023-03-08T00:42:21.010Z,4.50
2023-03-08T00:44:47.754Z,4.40
2023-03-08T00:47:14.369Z,4.40
2023-03-08T00:49:41.139Z,4.30
2023-03-08T00:52:07.958Z,4.30
2023-03-08T00:54:34.891Z,4.30
2023-03-08T00:57:01.524Z,4.30
2023-03-08T00:59:28.198Z,4.30
2023-03-08T01:01:54.803Z,4.30
2023-03-08T01:04:21.438Z,4.30
2023-03-08T01:06:48.164Z,4.30
2023-03-08T01:09:14.815Z,4.30
2023-03-08T01:11:41.441Z,4.30
2023-03-08T01:14:11.077Z,4.40
2023-03-08T01:16:37.670Z,4.40
2023-03-08T01:19:04.838Z,4.40
2023-03-08T01:21:32.151Z,4.30
2023-03-08T01:23:59.767Z,4.30
2023-03-08T01:26:27.068Z,4.20
2023-03-08T01:28:53.682Z,4.10
2023-03-08T01:31:24.349Z,4.00
2023-03-08T01:33:51.201Z,3.80
2023-03-08T01:36:19.653Z,3.70
2023-03-08T01:38:46.842Z,3.60
2023-03-08T01:41:18.336Z,3.50
2023-03-08T01:43:45.287Z,3.40
2023-03-08T01:46:24.229Z,3.30
2023-03-08T01:48:50.816Z,3.30
2023-03-08T01:51:20.786Z,3.20
2023-03-08T01:53:47.519Z,3.10
2023-03-08T01:56:15.080Z,3.10
2023-03-08T01:58:43.563Z,3.10
2023-03-08T02:01:10.230Z,3.00
2023-03-08T02:03:36.910Z,3.00
2023-03-08T02:06:04.186Z,3.00
2023-03-08T02:08:32.541Z,2.90
2023-03-08T02:10:59.621Z,2.90
2023-03-08T02:13:26.352Z,2.90
2023-03-08T02:15:55.225Z,2.80
2023-03-08T02:18:21.988Z,2.80
2023-03-08T02:20:48.593Z,2.70
2023-03-08T02:23:16.909Z,2.70
2023-03-08T02:25:51.352Z,2.70
2023-03-08T02:28:18.536Z,2.60
2023-03-08T02:30:45.232Z,2.60
2023-03-08T02:33:11.842Z,2.50
2023-03-08T02:35:42.749Z,2.50
2023-03-08T02:38:10.854Z,2.50
2023-03-08T02:40:37.783Z,2.40
2023-03-08T02:43:04.508Z,2.40
2023-03-08T02:45:31.546Z,2.40
2023-03-08T02:47:58.157Z,2.40
2023-03-08T02:50:24.783Z,2.40
2023-03-08T02:52:51.403Z,2.30
2023-03-08T02:55:17.997Z,2.30
2023-03-08T02:57:44.734Z,2.30
2023-03-08T03:00:11.595Z,2.30
2023-03-08T03:02:38.225Z,2.20
2023-03-08T03:05:12.381Z,2.20
2023-03-08T03:07:39.958Z,2.20
2023-03-08T03:10:07.247Z,2.20
2023-03-08T03:12:33.998Z,2.10
2023-03-08T03:15:04.809Z,2.10
2023-03-08T03:17:31.626Z,2.10
2023-03-08T03:19:58.365Z,2.10
2023-03-08T03:22:25.021Z,2.10
2023-03-08T03:24:51.715Z,2.10
2023-03-08T03:27:19.097Z,2.10
2023-03-08T03:29:45.697Z,2.00
2023-03-08T03:32:12.393Z,2.00
2023-03-08T03:34:39.157Z,2.00
2023-03-08T03:37:05.790Z,2.00
2023-03-08T03:39:35.653Z,2.00
2023-03-08T03:42:02.282Z,1.90
2023-03-08T03:44:30.147Z,1.90
2023-03-08T03:46:56.986Z,1.90
2023-03-08T03:49:23.665Z,1.90
2023-03-08T03:51:50.315Z,1.90
2023-03-08T03:54:17.052Z,1.90
2023-03-08T03:56:43.662Z,1.90
2023-03-08T03:59:10.315Z,1.90
2023-03-08T04:01:36.953Z,1.80
2023-03-08T04:04:03.737Z,1.80
2023-03-08T04:06:31.796Z,1.80
2023-03-08T04:08:59.980Z,1.80
2023-03-08T04:11:28.498Z,1.70
2023-03-08T04:13:55.178Z,1.70
2023-03-08T04:16:23.374Z,1.80
2023-03-08T04:18:54.329Z,1.80
2023-03-08T04:21:21.350Z,1.80
2023-03-08T04:23:48.225Z,1.80
2023-03-08T04:26:15.301Z,1.80
2023-03-08T04:28:42.113Z,1.90
2023-03-08T04:31:16.340Z,1.90
2023-03-08T04:33:43.334Z,1.90
2023-03-08T04:36:10.317Z,1.90
2023-03-08T04:38:37.005Z,1.90
2023-03-08T04:41:13.003Z,2.00
2023-03-08T04:43:48.902Z,2.00
2023-03-08T04:46:16.283Z,1.90
2023-03-08T04:48:43.219Z,1.90
2023-03-08T04:51:11.298Z,1.90
2023-03-08T04:53:39.204Z,1.90
2023-03-08T04:56:06.381Z,1.90
2023-03-08T04:58:33.865Z,1.90
2023-03-08T05:01:00.449Z,1.90
2023-03-08T05:03:27.099Z,1.90
2023-03-08T05:05:54.877Z,1.90
2023-03-08T05:08:22.689Z,1.90
2023-03-08T05:10:50.204Z,1.90
2023-03-08T05:13:16.820Z,1.90
2023-03-08T05:15:43.458Z,1.90
2023-03-08T05:18:10.094Z,1.90
2023-03-08T05:20:36.904Z,1.90
2023-03-08T05:23:03.548Z,1.90
2023-03-08T05:25:31.465Z,1.80
2023-03-08T05:27:58.225Z,1.80
2023-03-08T05:30:25.001Z,1.80
2023-03-08T05:32:51.675Z,1.80
2023-03-08T05:35:18.291Z,1.80
2023-03-08T05:37:44.899Z,1.80
2023-03-08T05:40:11.872Z,1.80
2023-03-08T05:42:38.566Z,1.80
2023-03-08T05:45:05.488Z,1.90
2023-03-08T05:47:32.202Z,1.90
2023-03-08T05:49:58.793Z,2.00
2023-03-08T05:52:25.403Z,2.00
2023-03-08T05:54:52.067Z,2.00
2023-03-08T05:57:18.690Z,2.00
2023-03-08T05:59:45.299Z,2.10
2023-03-08T06:02:12.001Z,2.20
2023-03-08T06:04:38.651Z,2.20
2023-03-08T06:07:05.273Z,2.20
2023-03-08T06:09:31.949Z,2.30
2023-03-08T06:11:58.617Z,2.30
2023-03-08T06:14:25.334Z,2.40
2023-03-08T06:16:52.001Z,2.40
2023-03-08T06:19:18.664Z,2.50
2023-03-08T06:21:45.278Z,2.50
2023-03-08T06:24:11.934Z,2.60
2023-03-08T06:26:38.600Z,2.60
2023-03-08T06:29:05.353Z,2.70
2023-03-08T06:31:31.960Z,2.70
2023-03-08T06:33:58.602Z,2.80
2023-03-08T06:36:25.230Z,2.90
2023-03-08T06:38:51.879Z,3.00
2023-03-08T06:41:19.459Z,3.10
2023-03-08T06:43:46.114Z,3.30
2023-03-08T06:46:14.400Z,3.40
2023-03-08T06:48:41.346Z,3.50
2023-03-08T06:51:08.005Z,3.60
2023-03-08T06:53:41.266Z,3.70
2023-03-08T06:56:09.221Z,3.80
2023-03-08T06:58:36.873Z,3.80
2023-03-08T07:01:06.946Z,3.90
2023-03-08T07:03:33.825Z,3.90
2023-03-08T07:06:01.260Z,3.90
2023-03-08T07:08:27.951Z,3.90
2023-03-08T07:10:54.706Z,4.00
2023-03-08T07:13:23.599Z,4.00
2023-03-08T07:15:53.352Z,4.10
2023-03-08T07:18:20.284Z,4.10
2023-03-08T07:20:51.462Z,4.10
2023-03-08T07:23:18.073Z,4.20
2023-03-08T07:25:44.718Z,4.20
2023-03-08T07:28:11.376Z,4.30
2023-03-08T07:30:38.003Z,4.30
2023-03-08T07:33:04.708Z,4.40
2023-03-08T07:35:31.596Z,4.40
2023-03-08T07:37:58.252Z,4.50
2023-03-08T07:40:24.919Z,4.50
2023-03-08T07:42:51.522Z,4.50
2023-03-08T07:45:18.746Z,4.60
2023-03-08T07:47:45.399Z,4.70
2023-03-08T07:50:12.030Z,4.80
2023-03-08T07:52:38.622Z,5.00
2023-03-08T07:55:05.567Z,5.00
2023-03-08T07:57:32.145Z,5.30
2023-03-08T07:59:58.782Z,5.50
2023-03-08T08:02:25.411Z,5.60
2023-03-08T08:04:52.110Z,5.80
2023-03-08T08:07:18.730Z,5.90
2023-03-08T08:09:45.478Z,6.00
2023-03-08T08:12:12.212Z,6.20
2023-03-08T08:14:38.984Z,6.50
2023-03-08T08:17:05.653Z,6.70
2023-03-08T08:19:32.308Z,7.00
2023-03-08T08:21:59.150Z,7.40
2023-03-08T08:24:26.165Z,7.80
2023-03-08T08:26:52.914Z,8.20
2023-03-08T08:29:19.689Z,8.50
2023-03-08T08:31:46.325Z,8.70
2023-03-08T08:34:13.038Z,8.80
2023-03-08T08:36:39.683Z,8.70
2023-03-08T08:39:06.386Z,8.60
2023-03-08T08:41:32.978Z,8.40
2023-03-08T08:44:00.203Z,8.20
2023-03-08T08:46:31.673Z,8.00
2023-03-08T08:48:58.748Z,7.90
2023-03-08T08:51:25.748Z,7.80
2023-03-08T08:53:52.802Z,7.80
2023-03-08T08:56:28.345Z,7.90
2023-03-08T08:58:56.635Z,8.00
2023-03-08T09:01:24.668Z,8.00
2023-03-08T09:03:51.760Z,8.00
2023-03-08T09:06:22.337Z,8.10
2023-03-08T09:08:50.677Z,8.10
2023-03-08T09:11:17.603Z,8.20
2023-03-08T09:13:44.247Z,8.30
2023-03-08T09:16:27.664Z,8.30
2023-03-08T09:18:56.294Z,8.20
2023-03-08T09:21:23.685Z,8.30
2023-03-08T09:23:50.470Z,8.30
2023-03-08T09:26:17.232Z,8.30
2023-03-08T09:28:43.975Z,8.30
2023-03-08T09:31:14.859Z,8.20
2023-03-08T09:33:42.802Z,8.20
2023-03-08T09:36:09.855Z,8.20
2023-03-08T09:38:36.709Z,8.10
2023-03-08T09:41:21.356Z,8.10
2023-03-08T09:44:00.122Z,8.20
2023-03-08T09:46:47.340Z,8.40
2023-03-08T09:49:15.963Z,8.50
2023-03-08T09:51:45.362Z,8.70
2023-03-08T09:54:14.011Z,8.80
2023-03-08T09:56:44.478Z,9.00
2023-03-08T09:59:16.905Z,9.10
2023-03-08T10:01:58.816Z,9.10
2023-03-08T10:04:34.517Z,9.20
2023-03-08T10:07:01.174Z,9.40
2023-03-08T10:09:37.009Z,9.40
2023-03-08T10:12:18.960Z,9.60
2023-03-08T10:14:49.252Z,9.90
2023-03-08T10:17:21.162Z,10.10
2023-03-08T10:19:59.398Z,10.20
2023-03-08T10:22:30.334Z,10.20
2023-03-08T10:25:15.769Z,10.00
2023-03-08T10:27:42.449Z,9.80
2023-03-08T10:30:14.492Z,9.60
2023-03-08T10:32:45.338Z,9.50
2023-03-08T10:35:12.196Z,9.50
2023-03-08T10:37:38.858Z,9.50
2023-03-08T10:40:18.653Z,9.50
2023-03-08T10:43:03.213Z,9.40
2023-03-08T10:45:30.196Z,9.50
2023-03-08T10:48:01.269Z,9.50
2023-03-08T10:50:32.387Z,9.50
2023-03-08T10:53:09.689Z,9.40
2023-03-08T10:55:54.531Z,9.40
2023-03-08T10:58:24.185Z,9.40
2023-03-08T11:00:52.990Z,9.40
2023-03-08T11:03:20.879Z,9.30
2023-03-08T11:06:01.046Z,9.20
2023-03-08T11:08:29.712Z,9.20
2023-03-08T11:11:00.353Z,9.20
2023-03-08T11:13:29.813Z,9.10
2023-03-08T11:16:02.870Z,9.10
2023-03-08T11:18:32.638Z,9.00
2023-03-08T11:21:04.629Z,9.00
2023-03-08T11:23:35.186Z,8.90
2023-03-08T11:26:23.723Z,8.80
2023-03-08T11:29:10.417Z,8.70
2023-03-08T11:31:44.257Z,8.60
2023-03-08T11:34:16.943Z,8.50
2023-03-08T11:36:47.610Z,8.40
2023-03-08T11:39:19.619Z,8.40
2023-03-08T11:42:04.880Z,8.40
2023-03-08T11:44:40.869Z,8.40
2023-03-08T11:47:25.960Z,8.40
2023-03-08T11:50:06.853Z,8.50
2023-03-08T11:52:40.728Z,8.60
2023-03-08T11:55:13.736Z,8.60
2023-03-08T11:57:43.746Z,8.70
2023-03-08T12:00:23.668Z,8.80
2023-03-08T12:02:50.887Z,8.80
2023-03-08T12:05:29.513Z,8.90
2023-03-08T12:08:02.459Z,9.00
2023-03-08T12:10:35.449Z,9.00
2023-03-08T12:13:11.685Z,9.10
2023-03-08T12:15:47.211Z,9.10
2023-03-08T12:18:20.121Z,9.20
2023-03-08T12:20:47.122Z,9.20
2023-03-08T12:23:19.873Z,9.40
2023-03-08T12:25:48.685Z,9.50
2023-03-08T12:28:20.549Z,9.70
2023-03-08T12:31:18.160Z,9.80
2023-03-08T12:33:53.844Z,10.00
2023-03-08T12:36:22.579Z,10.10
2023-03-08T12:38:55.615Z,10.20
2023-03-08T12:41:22.538Z,10.40
2023-03-08T12:43:58.524Z,10.60
2023-03-08T12:46:25.354Z,10.80
2023-03-08T12:48:53.575Z,11.00
2023-03-08T12:51:29.452Z,11.10
2023-03-08T12:53:58.144Z,11.20
2023-03-08T12:56:29.634Z,11.20
2023-03-08T12:59:22.717Z,11.20
2023-03-08T13:01:58.536Z,11.10
2023-03-08T13:04:41.030Z,11.10
2023-03-08T13:07:11.027Z,11.10
2023-03-08T13:09:46.808Z,11.10
2023-03-08T13:12:20.560Z,11.10
2023-03-08T13:14:47.248Z,11.20
2023-03-08T13:17:33.822Z,11.30
2023-03-08T13:20:14.435Z,11.50
2023-03-08T13:22:41.103Z,11.60
2023-03-08T13:25:37.203Z,11.80
2023-03-08T13:28:05.721Z,12.10
2023-03-08T13:30:33.840Z,12.40
2023-03-08T13:33:01.349Z,12.70
2023-03-08T13:35:28.046Z,12.90
2023-03-08T13:37:55.910Z,13.00
2023-03-08T13:40:23.183Z,13.10
2023-03-08T13:42:53.931Z,13.20
2023-03-08T13:45:20.812Z,13.20
2023-03-08T13:47:47.872Z,13.10
2023-03-08T13:50:19.966Z,13.10
2023-03-08T13:52:46.709Z,13.00
2023-03-08T13:55:19.220Z,13.10
2023-03-08T13:57:48.775Z,13.20
2023-03-08T14:00:32.098Z,13.30
2023-03-08T14:02:59.528Z,13.40
2023-03-08T14:05:33.068Z,13.50
2023-03-08T14:07:59.733Z,13.60
2023-03-08T14:10:31.248Z,13.50
2023-03-08T14:12:59.002Z,13.50
2023-03-08T14:15:25.718Z,13.50
2023-03-08T14:17:52.595Z,13.40
2023-03-08T14:20:21.108Z,13.20
2023-03-08T14:22:49.319Z,13.10
2023-03-08T14:25:22.147Z,13.00
2023-03-08T14:27:50.024Z,13.00
2023-03-08T14:30:18.026Z,13.00
2023-03-08T14:33:13.733Z,13.00
2023-03-08T14:35:42.908Z,13.00
2023-03-08T14:38:25.046Z,13.00
2023-03-08T14:40:52.003Z,12.90
2023-03-08T14:43:20.093Z,12.90
2023-03-08T14:45:55.102Z,12.80
2023-03-08T14:48:23.269Z,12.80
2023-03-08T14:50:57.957Z,12.80
2023-03-08T14:53:29.388Z,12.80
2023-03-08T14:55:56.501Z,12.80
2023-03-08T14:58:25.332Z,12.80
2023-03-08T15:00:56.226Z,12.80
2023-03-08T15:03:22.935Z,12.80
2023-03-08T15:05:49.650Z,12.90
2023-03-08T15:08:16.895Z,13.00
2023-03-08T15:10:43.731Z,13.10
2023-03-08T15:13:15.780Z,13.20
2023-03-08T15:15:42.810Z,13.30
2023-03-08T15:18:09.505Z,13.30
2023-03-08T15:20:44.530Z,13.30
2023-03-08T15:23:14.506Z,13.30
2023-03-08T15:25:41.432Z,13.20
2023-03-08T15:28:10.894Z,13.10
2023-03-08T15:30:37.503Z,13.10
2023-03-08T15:33:04.098Z,13.00
2023-03-08T15:35:30.744Z,13.00
2023-03-08T15:37:57.403Z,13.00
2023-03-08T15:40:25.627Z,12.90
2023-03-08T15:42:52.210Z,12.90
2023-03-08T15:45:18.885Z,12.80
2023-03-08T15:47:55.103Z,12.70
2023-03-08T15:50:21.830Z,12.70
2023-03-08T15:52:48.769Z,12.60
2023-03-08T15:55:15.424Z,12.60
2023-03-08T15:57:42.332Z,12.60
2023-03-08T16:00:10.133Z,12.60
2023-03-08T16:02:37.116Z,12.60
2023-03-08T16:05:04.271Z,12.60
2023-03-08T16:07:30.899Z,12.60
2023-03-08T16:09:57.537Z,12.50
2023-03-08T16:12:24.192Z,12.50
2023-03-08T16:14:51.199Z,12.40
2023-03-08T16:17:18.046Z,12.40
2023-03-08T16:19:44.809Z,12.30
2023-03-08T16:22:11.661Z,12.20
2023-03-08T16:24:38.264Z,12.10
2023-03-08T16:27:05.483Z,12.00
2023-03-08T16:29:32.804Z,12.00
2023-03-08T16:31:59.475Z,11.90
2023-03-08T16:34:26.613Z,11.90
2023-03-08T16:36:53.395Z,11.80
2023-03-08T16:39:20.254Z,11.80
2023-03-08T16:41:47.155Z,11.70
2023-03-08T16:44:21.182Z,11.70
2023-03-08T16:46:48.197Z,11.60
2023-03-08T16:49:15.201Z,11.60
2023-03-08T16:51:42.815Z,11.60
2023-03-08T16:54:13.015Z,11.60
2023-03-08T16:56:40.781Z,11.50
2023-03-08T16:59:07.453Z,11.50
2023-03-08T17:01:34.577Z,11.40
2023-03-08T17:04:01.407Z,11.30
2023-03-08T17:06:29.928Z,11.30
2023-03-08T17:08:57.053Z,11.30
2023-03-08T17:11:24.897Z,11.30
2023-03-08T17:13:52.774Z,11.20
2023-03-08T17:16:20.408Z,11.20
2023-03-08T17:18:47.835Z,11.20
2023-03-08T17:21:14.548Z,11.20
2023-03-08T17:23:41.207Z,11.20
2023-03-08T17:26:09.287Z,11.20
2023-03-08T17:28:36.444Z,11.20
2023-03-08T17:31:06.928Z,11.20
2023-03-08T17:33:33.586Z,11.10
2023-03-08T17:36:02.011Z,11.10
2023-03-08T17:38:29.056Z,11.10
2023-03-08T17:40:55.644Z,11.10
2023-03-08T17:43:22.313Z,11.10
2023-03-08T17:46:01.772Z,11.10
2023-03-08T17:48:28.634Z,11.10
2023-03-08T17:50:55.336Z,11.10
2023-03-08T17:53:21.955Z,11.10
2023-03-08T17:55:48.595Z,11.10
2023-03-08T17:58:15.195Z,11.10
2023-03-08T18:00:41.828Z,11.10
2023-03-08T18:03:08.613Z,11.10
2023-03-08T18:05:35.250Z,11.10
2023-03-08T18:08:01.916Z,11.00
2023-03-08T18:10:28.533Z,11.10
2023-03-08T18:12:55.245Z,11.00
2023-03-08T18:15:23.158Z,11.00
2023-03-08T18:17:50.119Z,11.00
2023-03-08T18:20:18.171Z,11.00
2023-03-08T18:22:47.024Z,11.00
2023-03-08T18:25:13.632Z,11.00
2023-03-08T18:27:40.295Z,10.90
2023-03-08T18:30:07.294Z,11.00
2023-03-08T18:32:33.925Z,10.90
2023-03-08T18:35:00.585Z,11.00
2023-03-08T18:37:27.219Z,10.90
2023-03-08T18:39:54.396Z,10.90
2023-03-08T18:42:21.121Z,10.90
2023-03-08T18:44:48.070Z,10.90
2023-03-08T18:47:14.868Z,10.90
2023-03-08T18:49:44.290Z,10.90
2023-03-08T18:52:11.426Z,10.90
2023-03-08T18:54:41.329Z,11.00
2023-03-08T18:57:07.962Z,11.00
2023-03-08T18:59:35.060Z,11.10
2023-03-08T19:02:02.055Z,11.20
2023-03-08T19:04:28.747Z,11.20
2023-03-08T19:06:55.353Z,11.20
2023-03-08T19:09:22.163Z,11.30
2023-03-08T19:11:48.832Z,11.20
2023-03-08T19:14:16.022Z,11.20
2023-03-08T19:16:42.729Z,11.10
2023-03-08T19:19:10.434Z,11.00
2023-03-08T19:21:38.207Z,10.90
2023-03-08T19:24:05.367Z,10.70
2023-03-08T19:26:35.890Z,10.60
2023-03-08T19:29:04.454Z,10.40
2023-03-08T19:31:31.599Z,10.20
2023-03-08T19:33:58.221Z,10.00
2023-03-08T19:36:24.851Z,9.90
2023-03-08T19:38:51.492Z,9.80
2023-03-08T19:41:18.153Z,9.70
2023-03-08T19:43:44.740Z,9.60
2023-03-08T19:46:11.437Z,9.40
2023-03-08T19:48:38.188Z,9.30
2023-03-08T19:51:04.914Z,9.20
2023-03-08T19:53:31.565Z,9.10
2023-03-08T19:55:58.174Z,9.00
2023-03-08T19:58:24.844Z,8.90
2023-03-08T20:01:00.766Z,8.90
2023-03-08T20:03:27.377Z,8.80
2023-03-08T20:05:55.049Z,8.70
2023-03-08T20:08:21.664Z,8.60
2023-03-08T20:10:49.376Z,8.60
2023-03-08T20:13:16.058Z,8.50
2023-03-08T20:15:42.667Z,8.40
2023-03-08T20:18:09.340Z,8.40
2023-03-08T20:20:35.945Z,8.30
2023-03-08T20:23:02.834Z,8.30
2023-03-08T20:25:29.547Z,8.20
2023-03-08T20:27:56.197Z,8.20
2023-03-08T20:30:22.934Z,8.20
2023-03-08T20:32:53.165Z,8.20
2023-03-08T20:35:20.531Z,8.20
2023-03-08T20:37:48.602Z,8.20
2023-03-08T20:40:17.987Z,8.10
2023-03-08T20:42:44.604Z,8.20
2023-03-08T20:45:11.480Z,8.10
2023-03-08T20:47:38.121Z,8.10
2023-03-08T20:50:05.013Z,8.10
2023-03-08T20:52:31.714Z,8.10
2023-03-08T20:54:58.429Z,8.20
2023-03-08T20:57:25.040Z,8.20
2023-03-08T20:59:51.660Z,8.20
2023-03-08T21:02:18.272Z,8.30
2023-03-08T21:04:44.918Z,8.30
2023-03-08T21:07:11.525Z,8.30
2023-03-08T21:09:38.153Z,8.30
2023-03-08T21:12:04.890Z,8.30
2023-03-08T21:14:31.629Z,8.30
2023-03-08T21:16:58.227Z,8.30
2023-03-08T21:19:24.895Z,8.30
2023-03-08T21:21:51.622Z,8.30
2023-03-08T21:24:19.081Z,8.30
2023-03-08T21:26:45.830Z,8.30
2023-03-08T21:29:13.647Z,8.30
2023-03-08T21:31:41.409Z,8.30
2023-03-08T21:34:08.617Z,8.30
2023-03-08T21:36:36.550Z,8.30
2023-03-08T21:39:04.065Z,8.30
2023-03-08T21:41:32.488Z,8.30
2023-03-08T21:44:00.849Z,8.30
2023-03-08T21:46:27.653Z,8.30
2023-03-08T21:48:54.995Z,8.30
2023-03-08T21:51:21.773Z,8.30
2023-03-08T21:53:48.706Z,8.30
2023-03-08T21:56:15.972Z,8.30
2023-03-08T21:58:43.158Z,8.30
2023-03-08T22:01:36.231Z,8.30
2023-03-08T22:04:03.532Z,8.30
2023-03-08T22:06:30.315Z,8.30
2023-03-08T22:08:56.968Z,8.30
2023-03-08T22:11:24.460Z,8.30
2023-03-08T22:13:52.077Z,8.30
2023-03-08T22:16:19.257Z,8.30
2023-03-08T22:18:46.072Z,8.30
2023-03-08T22:21:12.782Z,8.30
2023-03-08T22:23:39.506Z,8.30
2023-03-08T22:26:07.260Z,8.30
2023-03-08T22:28:34.013Z,8.30
2023-03-08T22:31:00.625Z,8.20
2023-03-08T22:33:27.275Z,8.20
2023-03-08T22:35:53.920Z,8.20
2023-03-08T22:38:21.003Z,8.20
2023-03-08T22:40:47.626Z,8.20
2023-03-08T22:43:14.467Z,8.20
2023-03-08T22:45:41.158Z,8.20
2023-03-08T22:48:07.867Z,8.20
2023-03-08T22:50:34.861Z,8.20
2023-03-08T22:53:01.541Z,8.10
2023-03-08T22:55:28.143Z,8.10
2023-03-08T22:57:54.736Z,8.10
2023-03-08T23:00:21.469Z,8.10
2023-03-08T23:02:48.312Z,8.10
2023-03-08T23:05:16.160Z,8.00
2023-03-08T23:07:42.836Z,8.00
2023-03-08T23:10:10.561Z,8.10
2023-03-08T23:12:37.534Z,8.10
2023-03-08T23:15:04.548Z,8.10
2023-03-08T23:17:31.339Z,8.10
2023-03-08T23:19:59.049Z,8.20
2023-03-08T23:22:25.796Z,8.20
2023-03-08T23:24:52.404Z,8.20
2023-03-08T23:27:19.690Z,8.30
2023-03-08T23:29:46.294Z,8.30
2023-03-08T23:32:13.064Z,8.30
2023-03-08T23:34:39.762Z,8.30
2023-03-08T23:37:06.611Z,8.40
2023-03-08T23:39:33.940Z,8.40
2023-03-08T23:42:00.766Z,8.40
2023-03-08T23:44:27.530Z,8.50
2023-03-08T23:46:54.119Z,8.50
2023-03-08T23:49:21.083Z,8.60
2023-03-08T23:51:47.675Z,8.60
2023-03-08T23:54:14.406Z,8.70
2023-03-08T23:56:41.044Z,8.70
2023-03-08T23:59:17.973Z,8.70
